KRNO/RNO METAR and TAF weather

Enter ICAO airport designator
Station Type Date Time Source
KRNO METAR 2018/12/13 05:55 UTC NOAA

KRNO 130555Z 18003KT 10SM SCT240 01/M06 A3034 RMK AO2 SLP274 T00111061 10094 20011 51010


Station Type Date Time Source
KRNO Decoded METAR 2018/12/13 05:55 UTC NOAA

RENO/TAHOE INTERNATIONAL AIRPORT, NV, United States (KRNO) 39-29N 119-46W 1342M
Dec 13, 2018 - 12:55 AM EST / 2018.12.13 0555 UTC
Wind: from the S (180 degrees) at 3 MPH (3 KT):0
Visibility: 10 mile(s):0
Sky conditions: partly cloudy
Temperature: 34.0 F (1.1 C)
Dew Point: 21.0 F (-6.1 C)
Relative Humidity: 58%
Pressure (altimeter): 30.34 in. Hg (1027 hPa)
Pressure tendency: 0.03 inches (1.0 hPa) higher than three hours ago
ob: KRNO 130555Z 18003KT 10SM SCT240 01/M06 A3034 RMK AO2 SLP274 T00111061 10094 20011 51010
cycle: 6

Station Type Date Time Source
KRNO TAF 2018/12/13 06:22 UTC NOAA

TAF KRNO 130520Z 1306/1406 VRB04KT P6SM FEW150 BKN250


Example: see airport list